Lansdowne, Pennsylvania
Current Conditions -  °F | °C
As of 1:36 PM on Thursday 27 Nov 2014 (Local Time) from KPHL Reporting Station
Broken Clouds Broken Clouds  
Wind Chill: 33°   Ceiling: 6500
Heat Index: 40°   Visibility: 10mi
Dew Point: 27°   Wind: 13mph
Humidity: 60%   Direction: 290°WNW
Pressure: 30.02"   Gusts: 18mph
Location:  39.94°N, 75.27°W
Report Text: KPHL 271836Z 29011G16KT 10SM SCT026 BKN065 04/M03 A3002 RMK AO2 T00441028 $
Loading
Personal Weather Stations






























Interactive Weather Map New forecast layout! Learn more

10-Day Weather Forecast

Advertisements
Track Severe Weather on mobile